createdAt,value
2023-04-18T00:03:09.522Z,8.0
2023-04-18T00:08:15.709Z,7.9
2023-04-18T00:13:22.062Z,7.8
2023-04-18T00:18:28.485Z,7.7
2023-04-18T00:23:34.881Z,7.6
2023-04-18T00:28:41.259Z,7.6
2023-04-18T00:33:47.658Z,7.5
2023-04-18T00:38:44.036Z,7.4
2023-04-18T00:44:00.582Z,7.3
2023-04-18T00:50:05.178Z,7.2
2023-04-18T00:54:13.884Z,7.2
2023-04-18T00:59:19.832Z,7.1
2023-04-18T01:04:16.556Z,7.0
2023-04-18T01:24:59.463Z,6.8
2023-04-18T01:29:51.776Z,6.9
2023-04-18T01:35:08.198Z,6.8
2023-04-18T01:45:10.916Z,6.8
2023-04-18T01:50:26.316Z,6.9
2023-04-18T01:55:24.325Z,6.9
2023-04-18T02:00:44.128Z,6.9
2023-04-18T02:06:06.685Z,6.9
2023-04-18T02:10:43.012Z,6.9
2023-04-18T02:15:59.441Z,7.0
2023-04-18T02:20:55.760Z,7.0
2023-04-18T02:26:12.220Z,7.0
2023-04-18T02:31:18.787Z,7.0
2023-04-18T02:36:25.161Z,7.0
2023-04-18T02:41:31.763Z,7.0
2023-04-18T02:46:38.121Z,7.1
2023-04-18T02:51:44.504Z,7.1
2023-04-18T02:56:50.908Z,7.1
2023-04-18T03:01:57.287Z,7.1
2023-04-18T03:07:07.672Z,7.1
2023-04-18T03:12:00.115Z,7.2
2023-04-18T03:17:16.565Z,7.2
2023-04-18T03:23:31.114Z,7.2
2023-04-18T03:28:05.694Z,7.2
2023-04-18T03:33:12.046Z,7.2
2023-04-18T03:38:38.473Z,7.3
2023-04-18T03:43:14.821Z,7.3
2023-04-18T03:48:31.260Z,7.3
2023-04-18T03:53:37.662Z,7.3
2023-04-18T03:59:04.109Z,7.3
2023-04-18T04:03:50.521Z,7.3
2023-04-18T04:08:56.845Z,7.3
2023-04-18T04:14:03.228Z,7.3
2023-04-18T04:19:09.656Z,7.3
2023-04-18T04:36:32.854Z,7.9
2023-04-18T04:40:56.117Z,7.9
2023-04-18T04:46:02.709Z,8.0
2023-04-18T04:51:56.739Z,7.9
2023-04-18T05:01:25.490Z,7.7
2023-04-18T05:06:41.848Z,7.7
2023-04-18T05:12:12.282Z,7.6
2023-04-18T05:16:44.794Z,7.6
2023-04-18T05:22:01.372Z,7.6
2023-04-18T05:27:07.993Z,7.6
2023-04-18T05:32:34.469Z,7.6
2023-04-18T05:37:10.716Z,7.6
2023-04-18T05:42:28.680Z,7.6
2023-04-18T05:47:35.141Z,7.6
2023-04-18T05:52:42.083Z,7.6
2023-04-18T05:57:48.416Z,7.7
2023-04-18T06:02:55.245Z,7.7
2023-04-18T06:08:01.374Z,7.8
2023-04-18T06:13:09.359Z,7.8
2023-04-18T06:18:15.727Z,7.9
2023-04-18T06:23:23.708Z,8.0
2023-04-18T06:28:30.089Z,8.0
2023-04-18T06:33:26.405Z,8.1
2023-04-18T06:38:42.812Z,8.2
2023-04-18T06:44:14.497Z,8.2
2023-04-18T06:48:57.113Z,8.2
2023-04-18T06:54:05.107Z,8.2
2023-04-18T06:59:15.505Z,8.3
2023-04-18T07:04:21.471Z,8.3
2023-04-18T07:09:27.780Z,8.3
2023-04-18T07:14:34.443Z,8.3
2023-04-18T07:19:30.497Z,8.2
2023-04-18T07:24:46.998Z,8.1
2023-04-18T07:29:43.286Z,8.1
2023-04-18T07:34:59.680Z,8.1
2023-04-18T07:40:06.163Z,8.1
2023-04-18T07:45:13.970Z,8.1
2023-04-18T07:50:20.394Z,8.1
2023-04-18T07:55:26.978Z,8.2
2023-04-18T08:00:33.229Z,8.2
2023-04-18T08:05:39.723Z,8.3
2023-04-18T08:10:46.003Z,8.4
2023-04-18T08:15:42.446Z,8.5
2023-04-18T08:20:48.867Z,8.7
2023-04-18T08:25:55.335Z,8.8
2023-04-18T08:31:11.662Z,9.0
2023-04-18T08:36:18.015Z,9.1
2023-04-18T08:41:24.581Z,9.2
2023-04-18T08:46:30.757Z,9.4
2023-04-18T08:51:38.207Z,9.7
2023-04-18T08:56:44.775Z,9.9
2023-04-18T09:01:51.076Z,10.1
2023-04-18T09:06:57.449Z,10.4
2023-04-18T09:12:03.886Z,10.7
2023-04-18T09:17:10.226Z,10.9
2023-04-18T09:22:16.732Z,11.1
2023-04-18T09:27:23.257Z,11.3
2023-04-18T09:32:29.751Z,11.6
2023-04-18T09:37:35.999Z,11.9
2023-04-18T09:42:42.424Z,12.3
2023-04-18T09:47:48.840Z,12.8
2023-04-18T09:52:55.122Z,13.3
2023-04-18T09:58:01.651Z,13.9
2023-04-18T10:03:08.153Z,14.4
2023-04-18T10:08:14.447Z,15.1
2023-04-18T10:13:20.923Z,15.8
2023-04-18T10:18:27.323Z,16.5
2023-04-18T10:23:33.667Z,17.1
2023-04-18T10:28:40.090Z,17.6
2023-04-18T10:34:10.494Z,18.1
2023-04-18T10:38:52.816Z,18.7
2023-04-18T10:43:59.387Z,19.0
2023-04-18T10:49:05.581Z,19.1
2023-04-18T10:54:12.150Z,19.0
2023-04-18T10:59:18.614Z,18.9
2023-04-18T11:04:25.038Z,18.7
2023-04-18T11:09:31.353Z,18.5
2023-04-18T11:14:38.030Z,18.3
2023-04-18T11:19:43.134Z,18.1
2023-04-18T11:24:50.576Z,18.0
2023-04-18T11:29:57.174Z,17.9
2023-04-18T11:40:45.075Z,17.8
2023-04-18T11:45:51.561Z,17.8
2023-04-18T11:50:57.831Z,17.7
2023-04-18T11:56:08.229Z,17.6
2023-04-18T12:01:34.699Z,17.6
2023-04-18T12:06:17.109Z,17.5
2023-04-18T12:11:23.379Z,17.5
2023-04-18T12:16:19.860Z,17.4
2023-04-18T12:22:10.387Z,17.4
2023-04-18T12:27:02.663Z,17.4
2023-04-18T12:31:49.053Z,17.4
2023-04-18T12:36:55.381Z,17.4
2023-04-18T12:42:01.769Z,17.5
2023-04-18T12:47:08.208Z,17.7
2023-04-18T12:52:14.509Z,18.0
2023-04-18T12:57:20.921Z,18.2
2023-04-18T13:02:27.393Z,18.4
2023-04-18T13:07:33.664Z,18.4
2023-04-18T13:12:40.076Z,18.6
2023-04-18T13:17:46.446Z,18.8
2023-04-18T13:22:42.791Z,19.0
2023-04-18T13:27:59.219Z,19.1
2023-04-18T13:33:29.640Z,19.3
2023-04-18T13:38:02.011Z,19.5
2023-04-18T13:43:18.444Z,19.7
2023-04-18T13:48:24.787Z,19.9
2023-04-18T13:53:31.404Z,20.1
2023-04-18T13:58:37.637Z,20.3
2023-04-18T14:03:44.312Z,20.5
2023-04-18T14:08:54.475Z,20.6
2023-04-18T14:14:34.989Z,20.8
2023-04-18T14:19:03.231Z,21.0
2023-04-18T14:23:59.777Z,21.2
2023-04-18T14:29:16.595Z,21.2
2023-04-18T14:34:22.768Z,21.3
2023-04-18T14:39:29.094Z,21.4
2023-04-18T14:44:25.454Z,21.3
2023-04-18T14:49:42.087Z,21.2
2023-04-18T14:54:38.611Z,21.1
2023-04-18T15:00:15.167Z,21.0
2023-04-18T15:05:01.624Z,20.9
2023-04-18T15:10:07.900Z,20.8
2023-04-18T15:15:17.827Z,20.7
2023-04-18T15:20:24.270Z,20.6
2023-04-18T15:25:32.189Z,20.6
2023-04-18T15:30:28.529Z,20.5
2023-04-18T15:35:45.119Z,20.4
2023-04-18T15:41:11.420Z,20.3
2023-04-18T15:51:24.246Z,20.0
2023-04-18T15:56:10.684Z,19.9
2023-04-18T16:06:25.390Z,19.5
2023-04-18T16:11:32.796Z,19.4
2023-04-18T16:26:52.069Z,19.0
2023-04-18T16:31:58.420Z,18.8
2023-04-18T16:37:04.811Z,18.7
2023-04-18T16:42:31.456Z,18.6
2023-04-18T16:47:06.776Z,18.4
2023-04-18T16:52:27.657Z,18.3
2023-04-18T16:57:54.169Z,18.2
2023-04-18T17:03:04.603Z,18.0
2023-04-18T17:08:08.140Z,17.9
2023-04-18T17:12:54.494Z,17.7
2023-04-18T17:18:00.940Z,17.7
2023-04-18T17:23:07.254Z,17.5
2023-04-18T17:28:13.715Z,17.4
2023-04-18T17:33:20.150Z,17.3
2023-04-18T17:38:26.502Z,17.2
2023-04-18T17:44:07.780Z,17.1
2023-04-18T17:48:40.055Z,17.0
2023-04-18T17:53:47.995Z,16.8
2023-04-18T17:58:56.055Z,16.7
2023-04-18T18:04:00.985Z,16.5
2023-04-18T18:09:07.271Z,16.3
2023-04-18T18:14:19.187Z,16.0
2023-04-18T18:19:21.618Z,15.8
2023-04-18T18:24:29.560Z,15.6
2023-04-18T18:29:35.948Z,15.4
2023-04-18T18:34:42.323Z,15.2
2023-04-18T18:39:48.671Z,15.0
2023-04-18T18:44:59.058Z,14.8
2023-04-18T18:50:01.470Z,14.6
2023-04-18T18:55:07.849Z,14.4
2023-04-18T19:00:04.227Z,14.1
2023-04-18T19:05:22.283Z,14.0
2023-04-18T19:10:28.614Z,13.8
2023-04-18T19:15:35.061Z,13.6
2023-04-18T19:20:45.638Z,13.4
2023-04-18T19:27:35.138Z,13.0
2023-04-18T19:32:42.571Z,13.0
2023-04-18T19:37:49.074Z,12.9
2023-04-18T19:42:55.456Z,12.7
2023-04-18T19:54:18.813Z,12.2
2023-04-18T19:59:44.799Z,12.2
2023-04-18T20:04:31.317Z,12.1
2023-04-18T20:09:37.707Z,11.9
2023-04-18T20:14:34.028Z,11.8
2023-04-18T20:19:50.442Z,11.6
2023-04-18T20:26:10.007Z,11.3
2023-04-18T20:31:17.498Z,11.3
2023-04-18T20:36:43.825Z,11.2
2023-04-18T20:41:54.303Z,11.1
2023-04-18T20:46:36.572Z,11.0
2023-04-18T21:01:55.986Z,10.6
2023-04-18T21:07:22.249Z,10.5
2023-04-18T21:12:10.171Z,10.4
2023-04-18T21:17:15.570Z,10.3
2023-04-18T21:22:13.006Z,10.2
2023-04-18T21:27:29.397Z,10.1
2023-04-18T21:32:35.947Z,10.0
2023-04-18T21:38:02.246Z,9.9
2023-04-18T21:42:49.878Z,9.8
2023-04-18T21:47:55.127Z,9.8
2023-04-18T21:53:01.450Z,9.7
2023-04-18T21:57:57.831Z,9.6
2023-04-18T22:03:38.489Z,9.6
2023-04-18T22:08:20.619Z,9.6
2023-04-18T22:13:27.046Z,9.5
2023-04-18T22:18:33.804Z,9.5
2023-04-18T22:23:40.178Z,9.5
2023-04-18T22:28:46.542Z,9.5
2023-04-18T22:33:52.924Z,9.5
2023-04-18T22:38:59.356Z,9.5
2023-04-18T22:43:55.701Z,9.5
2023-04-18T22:49:02.081Z,9.5
2023-04-18T22:54:22.075Z,9.5
2023-04-18T22:59:29.008Z,9.6
2023-04-18T23:04:35.478Z,9.6
2023-04-18T23:09:41.838Z,9.6
2023-04-18T23:14:48.200Z,9.6
2023-04-18T23:19:54.603Z,9.6
2023-04-18T23:25:01.040Z,9.7
2023-04-18T23:30:07.418Z,9.7
2023-04-18T23:35:03.783Z,9.7
2023-04-18T23:40:10.190Z,9.7
2023-04-18T23:45:26.769Z,9.7
2023-04-18T23:50:53.217Z,9.7
2023-04-18T23:55:41.252Z,9.7
